Time;durP1;ratioP1;P1;durP2;ratioP2;P2;SDS_P1;SDS_P2;PMS_P1;PMS_P2;Temp;Humidity;BMP_temperature;BMP_pressure;BME280_temperature;BME280_humidity;BME280_pressure;Samples;Min_cycle;Max_cycle;Signal;HPM_P1;HPM_P2
2022/04/08 00:00:33;;;;;;;46.33;30.08;;;;;;;12.47;75.92;99084.28;5071484;28;20090;-77
2022/04/08 00:02:58;;;;;;;46.53;30.45;;;;;;;12.47;75.83;99088.81;5073741;28;20035;-78
2022/04/08 00:05:24;;;;;;;39.95;31.48;;;;;;;12.27;75.77;99049.78;5057135;28;20485;-76
2022/04/08 00:07:49;;;;;;;48.63;30.58;;;;;;;12.42;76.16;99075.00;5053930;28;20528;-76
2022/04/08 00:10:15;;;;;;;53.92;31.77;;;;;;;12.36;75.58;99060.38;5054082;28;20144;-77
2022/04/08 00:12:40;;;;;;;44.80;31.05;;;;;;;12.41;75.77;99076.88;5053899;28;20037;-77
2022/04/08 00:15:06;;;;;;;50.10;29.95;;;;;;;12.42;76.01;99072.31;5066913;28;20040;-77
2022/04/08 00:17:31;;;;;;;52.63;30.98;;;;;;;12.40;75.63;99067.09;5073777;28;20077;-77
2022/04/08 00:19:57;;;;;;;53.33;31.85;;;;;;;12.37;75.68;99061.22;5061072;28;20033;-77
2022/04/08 00:22:23;;;;;;;46.58;32.40;;;;;;;12.44;75.57;99083.78;5053494;28;20486;-77
2022/04/08 00:24:49;;;;;;;46.42;30.80;;;;;;;12.28;76.49;99071.19;5064159;28;20032;-77
2022/04/08 00:27:15;;;;;;;45.55;31.88;;;;;;;12.29;76.37;99074.72;5073529;28;20046;-77
2022/04/08 00:29:40;;;;;;;44.00;33.10;;;;;;;12.30;76.53;99069.16;5058449;28;20040;-77
2022/04/08 00:32:06;;;;;;;43.15;31.95;;;;;;;12.29;76.47;99066.66;5053407;28;20032;-77
2022/04/08 00:34:32;;;;;;;49.70;31.13;;;;;;;12.29;76.07;99072.84;5066355;28;20040;-77
2022/04/08 00:36:57;;;;;;;51.20;31.80;;;;;;;12.26;76.17;99072.38;5073337;28;20466;-77
2022/04/08 00:39:23;;;;;;;48.80;32.00;;;;;;;12.25;76.50;99059.91;5060752;28;20025;-78
2022/04/08 00:41:49;;;;;;;58.13;31.23;;;;;;;12.23;76.74;99059.25;5053142;28;20388;-76
2022/04/08 00:44:15;;;;;;;44.78;30.63;;;;;;;12.23;77.29;99075.44;5063517;28;20036;-79
2022/04/08 00:46:40;;;;;;;41.25;30.58;;;;;;;12.03;77.04;99039.94;5054991;28;20039;-77
2022/04/08 00:49:06;;;;;;;46.00;30.52;;;;;;;12.18;77.08;99053.53;5071541;28;20036;-76
2022/04/08 00:51:33;;;;;;;44.60;29.80;;;;;;;12.19;77.02;99061.44;5072800;28;20032;-76
2022/04/08 00:53:59;;;;;;;46.28;31.45;;;;;;;12.26;77.16;99081.28;5062417;28;20127;-77
2022/04/08 00:56:28;;;;;;;46.45;28.27;;;;;;;12.26;77.36;99089.38;5053074;28;20689;-76
2022/04/08 00:58:55;;;;;;;43.83;27.75;;;;;;;12.10;77.55;99069.72;5062690;28;20028;-77
2022/04/08 01:01:20;;;;;;;37.95;27.67;;;;;;;12.05;78.23;99072.09;5073142;28;20370;-77
2022/04/08 01:03:46;;;;;;;40.15;27.15;;;;;;;12.20;78.14;99097.34;5064447;28;20036;-77
2022/04/08 01:06:12;;;;;;;45.15;26.55;;;;;;;12.20;78.32;99094.63;5052744;28;20029;-76
2022/04/08 01:08:39;;;;;;;49.40;25.67;;;;;;;12.26;78.06;99102.03;5058629;28;20374;-77
2022/04/08 01:11:04;;;;;;;34.47;24.13;;;;;;;12.23;78.51;99102.38;5072577;28;20115;-77
2022/04/08 01:13:30;;;;;;;44.30;24.63;;;;;;;12.27;78.20;99084.81;5068532;28;20446;-77
2022/04/08 01:15:55;;;;;;;32.70;24.42;;;;;;;12.40;77.78;99112.09;5052770;28;20033;-78
2022/04/08 01:18:21;;;;;;;37.97;22.60;;;;;;;12.24;77.77;99074.38;5057775;28;20031;-77
2022/04/08 01:20:46;;;;;;;35.08;23.55;;;;;;;12.43;77.66;99109.03;5058373;28;20033;-78
2022/04/08 01:23:15;;;;;;;39.10;23.92;;;;;;;12.34;77.77;99091.22;5059975;28;20171;-77
2022/04/08 01:25:40;;;;;;;31.77;23.35;;;;;;;12.38;77.98;99097.94;5074074;28;20067;-77
2022/04/08 01:28:06;;;;;;;37.15;21.95;;;;;;;12.48;77.60;99103.97;5052844;28;20028;-78
2022/04/08 01:30:32;;;;;;;36.80;22.80;;;;;;;12.48;76.95;99110.19;5052311;28;20475;-78
2022/04/08 01:32:57;;;;;;;31.77;20.45;;;;;;;12.42;76.86;99088.47;5052111;28;20033;-78
2022/04/08 01:35:23;;;;;;;33.40;22.63;;;;;;;12.60;76.40;99107.94;5071581;28;20032;-77
2022/04/08 01:37:48;;;;;;;36.45;23.15;;;;;;;12.66;76.22;99118.03;5072095;28;20461;-77
2022/04/08 01:40:14;;;;;;;33.63;21.15;;;;;;;12.62;76.61;99113.19;5053359;28;20471;-76
2022/04/08 01:42:40;;;;;;;32.22;22.92;;;;;;;12.73;75.93;99124.44;5052013;28;20459;-77
2022/04/08 01:45:08;;;;;;;31.23;21.95;;;;;;;12.66;75.91;99120.75;5068885;28;20028;-78
2022/04/08 01:47:33;;;;;;;36.17;21.17;;;;;;;12.64;75.52;99124.63;5071307;28;20067;-77
2022/04/08 01:49:59;;;;;;;33.80;20.50;;;;;;;12.63;75.94;99120.28;5052964;28;20083;-77
2022/04/08 01:52:24;;;;;;;40.63;21.27;;;;;;;12.64;75.71;99116.53;5051773;28;20060;-77
2022/04/08 01:54:49;;;;;;;30.02;19.63;;;;;;;12.56;75.82;99101.25;5070240;28;20020;-77
2022/04/08 01:57:17;;;;;;;25.83;19.30;;;;;;;12.54;75.88;99109.50;5071493;28;20070;-77
2022/04/08 01:59:44;;;;;;;35.30;20.33;;;;;;;12.61;75.90;99106.94;5054390;28;20044;-78
2022/04/08 02:02:09;;;;;;;33.30;20.15;;;;;;;12.56;75.99;99112.03;5051705;28;20088;-77
2022/04/08 02:04:35;;;;;;;44.88;21.83;;;;;;;12.57;76.24;99113.69;5066053;28;20036;-76
2022/04/08 02:07:02;;;;;;;33.33;20.55;;;;;;;12.42;76.21;99083.94;5053781;28;20035;-77
2022/04/08 02:09:28;;;;;;;34.30;20.83;;;;;;;12.50;75.86;99102.78;5038888;28;20053;-77
2022/04/08 02:11:54;;;;;;;35.63;19.75;;;;;;;12.59;75.45;99110.84;5064221;28;20482;-78
2022/04/08 02:14:19;;;;;;;33.15;19.30;;;;;;;12.59;75.71;99114.38;5071541;28;20035;-76
2022/04/08 02:16:45;;;;;;;27.98;19.85;;;;;;;12.60;76.11;99121.44;5059729;28;20071;-77
2022/04/08 02:19:10;;;;;;;30.77;20.20;;;;;;;12.43;76.32;99101.81;5051317;28;20036;-77
2022/04/08 02:21:36;;;;;;;38.60;19.95;;;;;;;12.57;75.84;99108.31;5060714;28;20035;-76
2022/04/08 02:24:03;;;;;;;28.23;19.15;;;;;;;12.56;75.77;99109.34;5070971;28;20034;-77
2022/04/08 02:26:30;;;;;;;29.33;19.20;;;;;;;12.40;76.33;99085.13;5063063;28;20029;-76
2022/04/08 02:28:55;;;;;;;36.90;20.80;;;;;;;12.61;76.44;99116.88;5051627;28;20118;-76
2022/04/08 02:31:21;;;;;;;27.08;19.65;;;;;;;12.49;76.70;99113.75;5058913;28;20440;-76
2022/04/08 02:33:46;;;;;;;52.45;31.15;;;;;;;12.51;76.46;99114.41;5061578;28;20028;-77
2022/04/08 02:36:12;;;;;;;83.30;56.03;;;;;;;12.44;76.51;99108.88;5066592;28;20028;-77
2022/04/08 02:38:37;;;;;;;82.65;63.33;;;;;;;12.58;76.22;99134.28;5051323;28;20025;-76
2022/04/08 02:41:02;;;;;;;76.05;53.45;;;;;;;12.62;76.42;99134.78;5055985;28;20024;-77
2022/04/08 02:43:28;;;;;;;65.78;46.72;;;;;;;12.47;76.38;99129.25;5070839;28;20028;-77
2022/04/08 02:45:53;;;;;;;60.72;39.60;;;;;;;12.50;76.62;99134.31;5068303;28;20442;-77
2022/04/08 02:48:19;;;;;;;60.35;35.40;;;;;;;12.48;76.40;99130.91;5052698;28;20025;-78
2022/04/08 02:50:45;;;;;;;43.85;28.95;;;;;;;12.51;76.11;99131.41;5056232;28;20029;-76
2022/04/08 02:53:10;;;;;;;39.13;24.20;;;;;;;12.56;76.01;99133.63;5076325;28;20024;-77
2022/04/08 02:55:36;;;;;;;36.15;22.45;;;;;;;12.54;75.57;99143.72;5072746;28;20025;-77
2022/04/08 02:58:02;;;;;;;34.83;21.33;;;;;;;12.47;76.09;99145.44;5051165;28;20123;-77
2022/04/08 03:00:27;;;;;;;37.28;21.02;;;;;;;12.38;75.67;99141.91;5051028;28;20091;-77
2022/04/08 03:02:53;;;;;;;33.03;21.75;;;;;;;12.46;76.40;99157.22;5070191;28;20021;-77
2022/04/08 03:05:18;;;;;;;40.28;19.67;;;;;;;12.55;75.87;99170.53;5071005;28;20433;-77
2022/04/08 03:07:44;;;;;;;37.88;19.58;;;;;;;12.45;75.62;99150.16;5053007;28;20392;-76
2022/04/08 03:10:10;;;;;;;31.13;20.15;;;;;;;12.55;75.77;99169.66;5051189;28;20064;-76
2022/04/08 03:12:36;;;;;;;35.92;19.10;;;;;;;12.49;75.36;99176.59;5068158;28;20043;-80
2022/04/08 03:15:03;;;;;;;38.78;18.08;;;;;;;12.53;75.07;99172.56;5072561;28;20024;-80
2022/04/08 03:17:29;;;;;;;30.50;16.40;;;;;;;12.30;75.44;99144.63;5074254;28;20486;-80
2022/04/08 03:19:56;;;;;;;34.83;18.15;;;;;;;12.54;74.99;99184.16;5074863;28;20029;-81
2022/04/08 03:22:22;;;;;;;36.47;17.42;;;;;;;12.49;75.04;99173.06;5060155;28;20511;-82
2022/04/08 03:24:48;;;;;;;33.35;17.85;;;;;;;12.44;75.09;99179.00;5054553;28;20033;-81
2022/04/08 03:27:14;;;;;;;37.05;18.13;;;;;;;12.49;75.04;99186.53;5067210;28;20116;-81
2022/04/08 03:29:39;;;;;;;26.65;18.33;;;;;;;12.39;75.17;99172.41;5074645;28;20107;-81
2022/04/08 03:32:05;;;;;;;35.08;15.60;;;;;;;12.20;74.81;99146.66;5062182;28;20125;-82
2022/04/08 03:34:31;;;;;;;32.63;17.92;;;;;;;12.40;74.73;99190.28;5054792;28;20033;-85
2022/04/08 03:36:57;;;;;;;26.77;16.17;;;;;;;12.39;74.50;99183.19;5054860;28;20040;-82
2022/04/08 03:39:22;;;;;;;27.80;17.88;;;;;;;12.57;74.61;99208.94;5054509;28;20032;-83
2022/04/08 03:41:48;;;;;;;35.33;16.65;;;;;;;12.57;74.20;99210.78;5064187;28;20033;-76
2022/04/08 03:44:14;;;;;;;37.45;17.17;;;;;;;12.54;74.13;99211.13;5074245;28;20505;-76
2022/04/08 03:46:41;;;;;;;42.78;17.67;;;;;;;12.54;74.62;99206.59;5065702;28;20033;-76
2022/04/08 03:49:12;;;;;;;28.45;18.02;;;;;;;12.47;74.44;99191.28;5054210;28;20499;-82
2022/04/08 03:51:38;;;;;;;33.47;18.70;;;;;;;12.48;74.14;99195.63;5058757;28;20052;-82
2022/04/08 03:54:04;;;;;;;28.02;17.95;;;;;;;12.63;74.02;99209.28;5074322;28;20186;-81
2022/04/08 03:56:29;;;;;;;37.55;18.73;;;;;;;12.49;73.56;99189.25;5073507;28;20021;-81
2022/04/08 03:58:54;;;;;;;33.05;16.92;;;;;;;12.59;74.00;99214.16;5074394;28;20419;-81
2022/04/08 04:01:20;;;;;;;27.25;17.67;;;;;;;12.42;73.71;99182.84;5068211;28;20481;-77
2022/04/08 04:03:45;;;;;;;33.63;19.33;;;;;;;12.54;73.50;99211.13;5053960;28;20033;-74
2022/04/08 04:06:11;;;;;;;32.85;18.42;;;;;;;12.62;73.38;99207.59;5057303;28;20398;-77
2022/04/08 04:08:37;;;;;;;32.50;18.45;;;;;;;12.50;73.21;99210.66;5047697;28;20124;-78
2022/04/08 04:11:02;;;;;;;39.20;17.13;;;;;;;12.48;73.98;99218.06;5054146;28;20166;-85
2022/04/08 04:13:28;;;;;;;28.02;17.70;;;;;;;12.39;73.62;99212.84;5036462;28;20025;-79
2022/04/08 04:15:53;;;;;;;41.25;17.77;;;;;;;12.49;73.59;99232.38;5056531;28;20032;-78
2022/04/08 04:18:18;;;;;;;32.97;17.48;;;;;;;12.53;73.43;99228.34;5061345;28;20028;-79
2022/04/08 04:20:44;;;;;;;29.42;18.42;;;;;;;12.65;73.50;99250.41;5080351;28;20066;-79
2022/04/08 04:23:09;;;;;;;42.92;18.05;;;;;;;12.17;73.06;99170.44;5075231;28;20031;-79
2022/04/08 04:25:35;;;;;;;39.15;19.98;;;;;;;12.65;73.35;99259.34;5073814;28;20032;-79
2022/04/08 04:28:01;;;;;;;35.28;17.83;;;;;;;12.54;73.17;99238.94;5053026;28;20028;-81
2022/04/08 04:30:27;;;;;;;32.05;18.85;;;;;;;12.40;72.98;99203.75;5053778;28;20471;-81
2022/04/08 04:32:53;;;;;;;29.25;18.58;;;;;;;12.82;72.49;99277.16;5053863;28;20031;-79
2022/04/08 04:35:19;;;;;;;34.33;19.55;;;;;;;12.85;72.38;99284.06;5059565;28;20086;-79
2022/04/08 04:37:44;;;;;;;38.30;19.15;;;;;;;12.66;72.03;99244.81;5073220;28;20351;-82
2022/04/08 04:40:10;;;;;;;37.70;18.98;;;;;;;12.84;72.55;99277.81;5054702;28;20460;-81
2022/04/08 04:42:36;;;;;;;38.80;18.17;;;;;;;12.77;72.30;99260.66;5073608;28;20028;-80
2022/04/08 04:45:01;;;;;;;39.08;19.95;;;;;;;12.63;72.57;99253.25;5072950;28;20495;-81
2022/04/08 04:47:27;;;;;;;39.88;20.27;;;;;;;12.76;72.54;99269.75;5073232;28;20028;-80
2022/04/08 04:49:52;;;;;;;29.88;21.20;;;;;;;12.74;73.05;99261.00;5072233;28;20024;-79
2022/04/08 04:52:18;;;;;;;40.17;19.85;;;;;;;12.99;72.81;99283.38;5053123;28;20462;-81
2022/04/08 04:54:43;;;;;;;41.22;19.55;;;;;;;12.63;72.93;99242.47;5053162;28;20029;-81
2022/04/08 04:57:09;;;;;;;34.05;20.63;;;;;;;12.97;72.74;99299.72;5072884;28;20020;-79
2022/04/08 04:59:34;;;;;;;42.88;19.67;;;;;;;13.03;72.52;99293.63;5073017;28;20485;-80
2022/04/08 05:02:00;;;;;;;31.60;20.67;;;;;;;12.76;72.90;99263.50;5072756;28;20512;-80
2022/04/08 05:04:25;;;;;;;46.22;22.33;;;;;;;13.00;72.66;99307.47;5055381;28;20100;-81
2022/04/08 05:06:51;;;;;;;35.22;22.05;;;;;;;12.89;72.69;99307.84;5072745;28;20066;-80
2022/04/08 05:09:16;;;;;;;34.30;19.77;;;;;;;13.00;73.21;99318.28;5073187;28;20094;-80
2022/04/08 05:11:42;;;;;;;32.53;20.35;;;;;;;13.07;72.73;99327.38;5059128;28;20408;-82
2022/04/08 05:14:08;;;;;;;38.33;21.67;;;;;;;13.05;72.97;99318.63;5058602;28;20024;-80
2022/04/08 05:16:33;;;;;;;55.65;20.02;;;;;;;13.17;72.90;99332.63;5077052;28;20072;-80
2022/04/08 05:18:58;;;;;;;30.88;20.17;;;;;;;13.01;72.71;99311.03;5068250;28;20033;-79
2022/04/08 05:21:24;;;;;;;34.35;19.63;;;;;;;13.21;72.58;99328.53;5054411;28;20067;-77
2022/04/08 05:23:50;;;;;;;41.65;20.48;;;;;;;13.20;72.52;99323.31;5054045;28;20144;-77
2022/04/08 05:26:15;;;;;;;38.30;19.80;;;;;;;13.23;72.53;99336.47;5052417;28;20420;-79
2022/04/08 05:28:41;;;;;;;35.35;20.65;;;;;;;13.14;72.73;99332.13;5052954;28;20490;-83
2022/04/08 05:31:07;;;;;;;43.22;18.77;;;;;;;13.11;72.43;99324.34;5053019;28;20044;-82
2022/04/08 05:33:32;;;;;;;43.50;20.17;;;;;;;13.27;72.60;99354.03;5063099;28;20077;-77
2022/04/08 05:35:58;;;;;;;36.75;19.15;;;;;;;13.28;72.59;99351.13;5063832;28;20021;-74
2022/04/08 05:38:23;;;;;;;46.22;20.67;;;;;;;13.37;72.67;99360.03;5059741;28;20036;-77
2022/04/08 05:40:49;;;;;;;40.65;19.25;;;;;;;13.44;72.31;99361.03;5046599;28;20127;-77
2022/04/08 05:43:18;;;;;;;35.20;18.38;;;;;;;13.43;72.06;99353.94;5054063;28;20051;-78
2022/04/08 05:45:44;;;;;;;50.60;18.13;;;;;;;13.48;71.57;99363.25;5047568;28;20028;-78
2022/04/08 05:48:09;;;;;;;39.10;18.95;;;;;;;13.49;71.30;99353.25;5074386;28;20042;-76
2022/04/08 05:50:35;;;;;;;32.92;17.83;;;;;;;13.52;71.32;99355.59;5067627;28;20052;-75
2022/04/08 05:53:01;;;;;;;42.10;18.30;;;;;;;13.57;71.49;99362.19;5057315;28;20119;-77
2022/04/08 05:55:26;;;;;;;32.30;17.90;;;;;;;13.65;71.00;99369.41;5060117;28;20066;-80
2022/04/08 05:57:56;;;;;;;43.40;18.25;;;;;;;13.61;70.70;99350.00;5035368;28;20051;-80
2022/04/08 06:00:23;;;;;;;25.85;15.50;;;;;;;13.82;69.93;99387.22;5059652;28;20031;-78
2022/04/08 06:02:49;;;;;;;32.35;17.13;;;;;;;13.86;69.54;99383.16;5064009;28;20083;-82
2022/04/08 06:05:18;;;;;;;40.58;22.05;;;;;;;13.92;69.42;99368.09;5064676;28;20067;-78
2022/04/08 06:07:55;;;;;;;29.40;17.60;;;;;;;13.99;69.29;99377.19;5061544;28;20467;-78
2022/04/08 06:10:23;;;;;;;29.85;17.88;;;;;;;14.06;69.18;99378.19;5058862;28;20087;-81
2022/04/08 06:12:51;;;;;;;24.23;15.93;;;;;;;14.13;68.34;99371.88;5071540;28;20516;-79
2022/04/08 06:15:17;;;;;;;29.90;17.20;;;;;;;14.05;68.14;99353.00;5061618;28;20459;-83
2022/04/08 06:17:43;;;;;;;38.28;16.65;;;;;;;14.27;67.75;99369.44;5072292;28;20051;-78
2022/04/08 06:20:10;;;;;;;34.70;17.73;;;;;;;14.27;67.62;99383.78;5066471;28;20108;-77
2022/04/08 06:22:41;;;;;;;28.63;17.20;;;;;;;14.30;67.72;99369.06;5058557;28;20489;-81
2022/04/08 06:25:08;;;;;;;28.02;15.82;;;;;;;14.52;67.52;99381.81;5043695;28;20467;-78
2022/04/08 06:27:34;;;;;;;40.83;16.13;;;;;;;14.52;66.97;99365.56;5058516;28;20028;-79
2022/04/08 06:29:59;;;;;;;30.75;15.18;;;;;;;14.78;66.27;99384.97;5058401;28;20101;-77
2022/04/08 06:32:25;;;;;;;36.00;15.68;;;;;;;14.81;65.41;99365.66;5061554;28;20025;-78
2022/04/08 06:34:50;;;;;;;31.10;13.52;;;;;;;14.96;64.38;99380.06;5052246;28;20060;-81
2022/04/08 06:37:16;;;;;;;41.63;13.90;;;;;;;14.98;64.19;99369.06;5060534;28;20485;-87
2022/04/08 06:39:41;;;;;;;23.55;12.85;;;;;;;15.24;63.46;99392.00;5070532;28;20031;-79
2022/04/08 06:42:07;;;;;;;28.23;13.15;;;;;;;15.40;62.75;99406.38;5064765;28;20028;-82
2022/04/08 06:44:32;;;;;;;20.63;12.15;;;;;;;15.49;61.39;99411.56;5071375;28;20035;-78
2022/04/08 06:46:57;;;;;;;24.73;13.10;;;;;;;15.58;61.45;99406.91;5068413;28;20029;-76
2022/04/08 06:49:23;;;;;;;26.05;12.63;;;;;;;15.65;61.43;99413.25;5070596;28;20048;-75
2022/04/08 06:51:49;;;;;;;21.45;11.13;;;;;;;15.74;60.57;99407.56;5063954;28;20391;-80
2022/04/08 06:54:15;;;;;;;18.73;12.07;;;;;;;15.69;59.69;99395.59;5055437;28;20040;-78
2022/04/08 06:56:40;;;;;;;29.25;12.00;;;;;;;15.86;59.92;99402.50;5044207;28;20033;-80
2022/04/08 06:59:06;;;;;;;26.90;11.73;;;;;;;16.07;59.41;99404.44;5068798;28;20037;-77
2022/04/08 07:01:33;;;;;;;18.50;10.18;;;;;;;15.92;58.93;99374.63;5055020;28;20029;-81
2022/04/08 07:03:58;;;;;;;19.23;11.07;;;;;;;15.98;58.67;99383.88;5075546;28;20085;-82
2022/04/08 07:06:24;;;;;;;18.88;10.52;;;;;;;16.21;57.23;99400.84;5068648;28;20028;-78
2022/04/08 07:08:49;;;;;;;20.98;10.00;;;;;;;16.43;56.63;99415.28;5055742;28;20028;-77
2022/04/08 07:11:15;;;;;;;20.80;10.23;;;;;;;16.42;56.18;99417.16;5070449;28;20040;-77
2022/04/08 07:13:41;;;;;;;20.33;10.23;;;;;;;16.62;55.68;99434.56;5073416;28;20024;-77
2022/04/08 07:16:08;;;;;;;14.82;8.73;;;;;;;16.64;55.48;99429.75;5074686;28;20024;-78
2022/04/08 07:18:34;;;;;;;20.08;8.20;;;;;;;16.70;55.48;99428.16;5074590;28;20081;-77
2022/04/08 07:20:59;;;;;;;17.40;9.98;;;;;;;16.82;55.09;99440.16;5074617;28;20032;-77
2022/04/08 07:23:25;;;;;;;18.42;9.15;;;;;;;16.90;55.88;99437.34;5074963;28;20028;-77
2022/04/08 07:25:50;;;;;;;15.13;10.10;;;;;;;16.93;56.52;99431.53;5080894;28;20024;-77
2022/04/08 07:28:15;;;;;;;24.25;8.68;;;;;;;17.05;56.07;99437.28;5077291;28;20158;-77
2022/04/08 07:30:41;;;;;;;17.98;8.10;;;;;;;17.20;55.90;99429.88;5080816;28;20048;-77
2022/04/08 07:33:07;;;;;;;14.02;9.00;;;;;;;17.36;54.30;99452.19;5077802;28;20071;-78
2022/04/08 07:35:33;;;;;;;24.50;8.20;;;;;;;17.38;53.29;99454.69;5074210;28;20024;-76
2022/04/08 07:38:00;;;;;;;15.80;8.02;;;;;;;17.37;52.65;99442.97;5074613;28;20091;-76
2022/04/08 07:40:26;;;;;;;20.08;8.40;;;;;;;17.61;52.81;99462.66;5074313;28;20106;-75
2022/04/08 07:42:52;;;;;;;15.02;8.40;;;;;;;17.64;52.00;99471.25;5073962;28;20029;-76
2022/04/08 07:45:24;;;;;;;19.85;7.22;;;;;;;17.69;52.21;99474.22;5073897;28;20036;-76
2022/04/08 07:47:50;;;;;;;15.45;7.93;;;;;;;17.77;52.10;99471.31;5074199;28;20055;-76
2022/04/08 07:50:15;;;;;;;43.05;8.43;;;;;;;17.80;51.85;99476.38;5056119;28;20475;-76
2022/04/08 07:52:42;;;;;;;9.82;7.07;;;;;;;17.81;51.87;99482.66;5073710;28;20024;-76
2022/04/08 07:55:08;;;;;;;12.77;8.52;;;;;;;17.87;51.93;99488.13;5073708;28;20413;-79
2022/04/08 07:57:47;;;;;;;17.73;7.45;;;;;;;17.77;51.54;99478.63;5073727;28;20098;-77
2022/04/08 08:00:15;;;;;;;24.65;7.63;;;;;;;17.93;50.94;99489.22;5073867;28;20081;-77
2022/04/08 08:02:41;;;;;;;20.35;7.90;;;;;;;18.03;50.73;99491.59;5075535;28;20035;-76
2022/04/08 08:05:07;;;;;;;10.95;6.65;;;;;;;18.07;50.39;99504.56;5078094;28;20027;-77
2022/04/08 08:07:43;;;;;;;14.48;7.22;;;;;;;18.11;49.96;99511.31;5076558;28;20109;-75
2022/04/08 08:10:09;;;;;;;22.23;7.25;;;;;;;18.12;49.54;99498.53;5073723;28;20502;-76
2022/04/08 08:12:34;;;;;;;19.83;6.88;;;;;;;18.08;49.03;99495.38;5073244;28;20178;-75
2022/04/08 08:15:00;;;;;;;8.27;6.25;;;;;;;18.18;49.17;99504.03;5073051;28;20108;-78
2022/04/08 08:17:25;;;;;;;14.48;6.43;;;;;;;18.13;48.70;99492.91;5073057;28;20108;-77
2022/04/08 08:19:51;;;;;;;12.73;5.75;;;;;;;18.16;48.64;99492.50;5073047;28;20020;-76
2022/04/08 08:22:16;;;;;;;10.85;6.80;;;;;;;18.32;48.08;99497.59;5073078;28;20069;-76
2022/04/08 08:24:42;;;;;;;12.57;6.32;;;;;;;18.41;48.15;99501.81;5072898;28;20024;-76
2022/04/08 08:27:07;;;;;;;16.83;5.38;;;;;;;18.52;47.78;99494.16;5073000;28;20078;-77
2022/04/08 08:29:32;;;;;;;7.75;4.57;;;;;;;18.64;46.99;99501.53;5073003;28;20029;-76
2022/04/08 08:31:58;;;;;;;16.48;5.40;;;;;;;18.76;47.10;99499.06;5054779;28;20020;-76
2022/04/08 08:34:23;;;;;;;6.57;4.90;;;;;;;18.94;46.33;99502.91;5072815;28;20031;-76
2022/04/08 08:36:49;;;;;;;11.85;4.85;;;;;;;19.03;46.16;99507.09;5074016;28;20031;-76
2022/04/08 08:39:15;;;;;;;14.18;5.55;;;;;;;19.09;45.81;99499.13;5072783;28;20366;-76
2022/04/08 08:41:40;;;;;;;13.10;5.03;;;;;;;19.05;45.82;99465.19;5072869;28;20028;-77
2022/04/08 08:44:06;;;;;;;12.00;5.50;;;;;;;19.23;45.72;99495.41;5072774;28;20040;-77
2022/04/08 08:46:34;;;;;;;9.57;5.40;;;;;;;19.29;45.38;99495.41;5072471;28;20086;-78
2022/04/08 08:49:01;;;;;;;20.85;5.95;;;;;;;19.39;45.41;99495.84;5072802;28;20104;-77
2022/04/08 08:51:28;;;;;;;10.10;5.05;;;;;;;19.46;45.43;99506.78;5072923;28;20030;-77
2022/04/08 08:53:54;;;;;;;11.73;5.72;;;;;;;19.36;46.05;99484.50;5072756;28;20103;-77
2022/04/08 08:56:19;;;;;;;32.08;5.45;;;;;;;19.52;46.52;99501.31;5072681;28;20036;-76
2022/04/08 08:58:45;;;;;;;23.27;5.15;;;;;;;19.67;45.89;99508.44;5072505;28;20154;-75
2022/04/08 09:01:11;;;;;;;21.20;5.40;;;;;;;19.71;45.37;99494.19;5073267;28;20517;-76
2022/04/08 09:03:37;;;;;;;10.82;4.85;;;;;;;19.82;45.40;99500.88;5078709;28;20028;-76
2022/04/08 09:06:08;;;;;;;11.70;4.35;;;;;;;20.00;45.50;99501.06;5059681;28;20169;-75
2022/04/08 09:08:35;;;;;;;11.52;4.63;;;;;;;20.05;44.70;99507.59;5077222;28;20091;-78
2022/04/08 09:11:02;;;;;;;7.65;4.35;;;;;;;20.17;44.54;99505.03;5034886;28;20056;-76
2022/04/08 09:13:28;;;;;;;23.80;6.43;;;;;;;20.25;44.17;99506.66;5032307;28;20038;-77
2022/04/08 09:15:55;;;;;;;14.00;4.20;;;;;;;20.38;42.66;99502.06;5032236;28;20025;-77
2022/04/08 09:18:21;;;;;;;11.40;4.70;;;;;;;20.39;43.47;99520.13;5031902;28;20029;-76
2022/04/08 09:20:49;;;;;;;16.42;4.40;;;;;;;20.41;43.32;99490.69;5031757;28;20021;-76
2022/04/08 09:23:17;;;;;;;15.25;3.95;;;;;;;20.55;43.17;99519.63;5031766;28;20440;-77
2022/04/08 09:25:43;;;;;;;22.83;5.05;;;;;;;20.68;42.82;99528.81;5032020;28;20029;-76
2022/04/08 09:28:14;;;;;;;10.05;4.32;;;;;;;20.78;42.42;99531.94;5031696;28;20056;-76
2022/04/08 09:30:40;;;;;;;21.80;4.40;;;;;;;20.86;40.60;99542.63;5031437;28;20091;-75
2022/04/08 09:33:19;;;;;;;6.07;3.50;;;;;;;20.96;40.04;99534.81;5031638;28;20029;-77
2022/04/08 09:35:45;;;;;;;14.90;3.83;;;;;;;20.95;39.30;99542.16;5031574;28;20467;-75
2022/04/08 09:38:16;;;;;;;10.70;3.50;;;;;;;20.97;39.20;99533.75;5031554;28;20029;-76
2022/04/08 09:40:42;;;;;;;22.17;3.60;;;;;;;20.86;38.88;99516.13;5031857;28;20487;-76
2022/04/08 09:43:08;;;;;;;7.07;3.05;;;;;;;21.10;38.57;99544.63;5031756;28;20021;-76
2022/04/08 09:45:34;;;;;;;15.45;2.80;;;;;;;21.09;38.23;99541.09;5031569;28;20074;-75
2022/04/08 09:48:01;;;;;;;12.68;4.10;;;;;;;21.12;38.45;99542.53;5031488;28;20033;-77
2022/04/08 09:50:27;;;;;;;12.38;3.30;;;;;;;21.14;38.28;99535.78;5031523;28;20029;-78
2022/04/08 09:52:53;;;;;;;7.70;3.42;;;;;;;21.12;38.46;99548.00;5031349;28;20029;-76
2022/04/08 09:55:23;;;;;;;14.68;3.42;;;;;;;21.18;38.21;99541.66;5031407;28;20033;-76
2022/04/08 09:57:55;;;;;;;15.88;3.53;;;;;;;21.27;38.10;99534.88;5030083;28;20029;-78
2022/04/08 10:00:20;;;;;;;7.50;2.57;;;;;;;21.40;38.39;99533.94;5031115;28;20396;-76
2022/04/08 10:02:49;;;;;;;10.77;3.60;;;;;;;21.46;37.74;99517.50;5031102;28;20276;-78
2022/04/08 10:05:15;;;;;;;4.38;2.90;;;;;;;21.55;37.34;99539.94;5031224;28;20104;-76
2022/04/08 10:07:47;;;;;;;27.17;7.00;;;;;;;21.56;37.40;99528.75;5031171;28;20033;-76
2022/04/08 10:10:34;;;;;;;18.17;3.97;;;;;;;21.55;37.08;99527.09;5058013;28;20052;-75
2022/04/08 10:13:33;;;;;;;10.52;3.55;;;;;;;21.54;37.38;99509.00;5070841;28;20029;-76
2022/04/08 10:16:01;;;;;;;4.93;2.47;;;;;;;21.63;36.58;99529.56;5071063;28;20056;-75
2022/04/08 10:18:36;;;;;;;14.25;4.07;;;;;;;21.55;37.03;99520.78;5071023;28;20097;-76
2022/04/08 10:21:01;;;;;;;8.13;2.78;;;;;;;21.63;36.86;99529.56;5071290;28;20059;-76
2022/04/08 10:23:36;;;;;;;9.63;3.67;;;;;;;21.73;36.61;99530.94;5070846;28;20056;-77
2022/04/08 10:26:04;;;;;;;9.52;2.95;;;;;;;21.67;36.79;99506.16;5070568;28;20394;-77
2022/04/08 10:28:36;;;;;;;8.00;2.95;;;;;;;22.01;36.18;99543.16;5070907;28;20024;-77
2022/04/08 10:31:16;;;;;;;4.15;2.80;;;;;;;22.13;35.99;99530.41;5070848;28;20021;-77
2022/04/08 10:33:50;;;;;;;10.35;3.40;;;;;;;22.22;35.82;99533.69;5077209;28;20157;-76
2022/04/08 10:36:16;;;;;;;8.88;3.85;;;;;;;22.21;36.25;99532.84;5077538;28;20486;-77
2022/04/08 10:38:42;;;;;;;12.38;3.28;;;;;;;22.36;35.11;99528.88;5076438;28;20036;-76
2022/04/08 10:41:10;;;;;;;14.50;2.92;;;;;;;22.66;34.50;99549.00;5072289;28;20394;-76
2022/04/08 10:43:52;;;;;;;9.23;3.08;;;;;;;22.82;34.46;99545.66;5070751;28;20166;-78
2022/04/08 10:46:31;;;;;;;8.93;2.67;;;;;;;23.06;34.45;99550.19;5070514;28;20413;-78
2022/04/08 10:48:57;;;;;;;6.70;3.08;;;;;;;23.27;33.89;99548.84;5071034;28;20417;-77
2022/04/08 10:51:23;;;;;;;5.63;3.00;;;;;;;23.49;33.73;99552.75;5071494;28;20032;-77
2022/04/08 10:53:49;;;;;;;5.32;3.13;;;;;;;23.53;33.58;99553.97;5070879;28;20031;-76
2022/04/08 10:56:15;;;;;;;6.15;3.03;;;;;;;23.58;32.44;99565.06;5070856;28;20112;-76
2022/04/08 10:58:46;;;;;;;10.55;2.17;;;;;;;23.57;32.39;99560.69;5070618;28;20355;-76
2022/04/08 11:01:34;;;;;;;20.30;2.95;;;;;;;23.51;33.01;99561.63;5070524;28;20032;-76
2022/04/08 11:04:05;;;;;;;7.10;3.08;;;;;;;23.53;33.45;99553.97;5070651;28;20035;-77
2022/04/08 11:06:35;;;;;;;10.15;1.98;;;;;;;23.64;31.45;99558.63;5070154;28;20437;-77
2022/04/08 11:09:05;;;;;;;3.03;1.67;;;;;;;23.51;30.85;99550.63;5070109;28;20409;-77
2022/04/08 11:11:33;;;;;;;7.00;3.22;;;;;;;23.57;32.08;99552.44;5070375;28;20036;-78
2022/04/08 11:14:00;;;;;;;7.75;2.97;;;;;;;23.60;31.49;99543.75;5070467;28;20025;-78
2022/04/08 11:16:31;;;;;;;7.40;1.95;;;;;;;23.58;31.07;99556.84;5070304;28;20045;-77
2022/04/08 11:18:57;;;;;;;9.35;2.20;;;;;;;23.72;30.42;99572.06;5052411;28;20028;-78